Copia in Excel

Francia - National 2 Statistiche Corner e Risultati

TotalCorner fornisce statistiche corner, calendario, risultati, classifica, statistiche cartellini e confronto quote per Francia - National 2. Segui le ultime Francia - National 2 partite con corner a fine partita, corner all'intervallo, gol, cartellini e dati delle partite.

ora d'inizio Casa Punteggio Trasferta Handicap Corner Corner PT Corner asiat. Corner O/U Gol Gol O/U Attacco Tiri Analisi
February 2025
02/22 17:00 Tempo pieno CMS Oissel 0 - 0 AS Chatou 0.0, -0.5 3 - 2 2 - 0 3.0 Under 96 - 71 5 - 9
02/22 17:00 Tempo pieno Vendee Fontenay 2 - 2 Vitre 0.0 3 - 3 2 - 1 2.5 Over 93 - 65 12 - 9
02/22 17:00 Tempo pieno Rennes TA 1 - 0 Ussa Vertou 0.0, -0.5 5 - 9 5 - 0 2.5 Under 85 - 72 10 - 8
02/22 17:00 Tempo pieno Blagnac 0 - 0 Stade Bordelais -0.5, -1.0 7 - 9 1 - 6 2.0, 2.5 Under 68 - 67 8 - 15
02/22 17:00 Tempo pieno US Orleans II 3 - 3 Vierzon Foot 0.0, -0.5 6 - 5 3 - 2 3.0 Over 69 - 63 10 - 8
02/22 17:00 Tempo pieno Racing Paris 1 - 0 US Lusitanos Saint-Maur -0.5 4 - 3 2 - 2 9.0 Under 2.5 Under 111 - 68 5 - 3
02/22 16:00 Besancon 0 - 0 Strasbourg Koenigshoffen 0.0 0 - 0 0 - 0 2.5 - -
02/22 16:00 Tempo pieno Colmar 5 - 2 Thaon -0.5, -1.0 6 - 1 4 - 1 2.5 Over 89 - 55 21 - 10
02/22 16:00 Tempo pieno Sarreguemines 2 - 1 Sarre Union 0.0, -0.5 6 - 4 3 - 2 2.5 Over 78 - 84 14 - 4
02/22 16:00 Tempo pieno Guingamp II 1 - 1 St-Pierre Milizac 0.0, -0.5 7 - 4 3 - 1 9.0 Over 2.5, 3.0 Under 100 - 80 9 - 10
02/22 15:00 Caen II 0 - 0 Grand Quevilly FC -1 0 - 0 0 - 0 3.0 - -
02/22 14:30 Tempo pieno Cannet Rocheville 2 - 0 USC Cortenais -0.5 5 - 3 2 - 1 2.5 Under 94 - 87 11 - 5
02/22 14:00 Tempo pieno Montpellier II 1 - 2 Rousset-Ste Victoire 0.0, +0.5 2 - 6 1 - 2 2.5, 3.0 Over 63 - 69 4 - 7
02/22 14:00 Tempo pieno Marseille II 5 - 1 Entente UGA Ardziv -1.0 6 - 1 1 - 1 3.0 Over 76 - 77 12 - 8
02/22 13:30 Tempo pieno Neuilly Sur Marne 0 - 1 Auxerre II +0.5 0 - 4 0 - 2 8.5 Under 2.5, 3.0 Under 125 - 132 4 - 16
February 2025
02/16 14:00 Tempo pieno St Etienne II 1 - 1 Thonon Evian FC 0.0, -0.5 5 - 2 4 - 1 2.0, 2.5 Under 68 - 74 19 - 6
02/16 13:30 Tempo pieno Bordeaux II 2 - 2 Bassin D'Arcachon 0.0, +0.5 4 - 8 2 - 4 2.0, 2.5 Over 71 - 70 11 - 14
02/16 13:30 Tempo pieno US Salinieres 0 - 0 SUD FC -0.5 12 - 1 3 - 1 2.0, 2.5 Under 76 - 59 13 - 4
02/16 13:30 Tempo pieno Bretigny 2 - 1 AG Caennaise -0.5, -1.0 6 - 5 4 - 2 9.0 Over 2.5 Over 135 - 117 23 - 14
02/15 17:30 Tempo pieno US Castanet 2 - 1 Trelissac FC 0.0 1 - 2 1 - 0 2.0 Over 65 - 72 10 - 10
02/15 17:00 Tempo pieno Vineuil SF 1 - 3 AS Montlouis 0.0, +0.5 5 - 3 2 - 1 2.0, 2.5 Over 125 - 131 5 - 13
02/15 17:00 Tempo pieno Sainte Genevieve Sports 1 - 1 US Ivry 0.0, -0.5 5 - 2 1 - 1 2.0, 2.5 Under 131 - 101 11 - 9
02/15 17:00 AS Chatou 0 - 0 Linas-Montlhery 0.0 0 - 0 0 - 0 2.0, 2.5 - -
02/15 17:00 Tempo pieno Torcy 1 - 2 Neuilly Sur Marne 0.0, +0.5 8 - 0 6 - 0 2.5 Over 104 - 81 19 - 8
02/15 17:00 Tempo pieno US Lusitanos Saint-Maur 2 - 2 ASPTT Digione -0.5, -1.0 6 - 4 0 - 2 2.0, 2.5 Over 89 - 81 9 - 5
02/15 17:00 Tempo pieno Union Cosnoise 2 - 0 Chauvigny -0.5, -1.0 7 - 2 3 - 0 2.5 Under 109 - 112 17 - 8
02/15 17:00 Tempo pieno Sable FC 0 - 1 Rennes TA 0.0 2 - 6 2 - 0 8.5 Under 2.0, 2.5 Under 70 - 86 3 - 10
02/15 17:00 Tempo pieno AC Seyssinet 1 - 1 Chassieu Decines -0.5 1 - 3 1 - 2 2.0, 2.5 Under 108 - 106 6 - 12
02/15 17:00 Tempo pieno Lannion FC 0 - 0 Pontivy GSI 0.0 6 - 5 5 - 3 2.0, 2.5 Under 73 - 101 11 - 11
02/15 17:00 Tempo pieno Stade Bordelais 1 - 2 Onet-le-Chateau 0.0, -0.5 6 - 2 4 - 1 8.5 Under 2.5 Over 102 - 98 12 - 8
02/15 17:00 Tempo pieno Laval II 1 - 1 ESOF La Roche Sur Yon -0.5 7 - 1 4 - 1 2.0 Push 83 - 67 10 - 4
02/15 17:00 Tempo pieno FC Chauray 4 - 3 Vendee Fontenay 0.0, +0.5 3 - 6 1 - 4 2.0 Over 59 - 105 11 - 20
02/15 16:00 Tempo pieno Lorient II 2 - 1 Fougeres -0.5, -1.0 3 - 8 1 - 5 2.5 Over 87 - 76 10 - 15
02/15 16:00 Tempo pieno Ajaccio II 1 - 2 FC Bastia-Borgo 0.0, +0.5 13 - 1 4 - 1 2.0, 2.5 Over 73 - 64 17 - 5
02/15 16:00 Tempo pieno Caen PTT 1 - 0 St-Ouen L'Aumone 0.0 3 - 3 2 - 1 2.0, 2.5 Under 85 - 104 4 - 5
02/15 16:00 Tempo pieno Reims II 3 - 2 Lens II 0.0 4 - 5 0 - 4 2.5 Over 68 - 45 22 - 9
02/15 16:00 Tempo pieno Hauts Lyonnais 2 - 0 Chamalieres FC 0.0 10 - 2 5 - 1 2.0, 2.5 Under 77 - 81 19 - 12
02/15 15:00 Tempo pieno Auxerre II 4 - 0 Montceau -1.0, -1.5 2 - 4 1 - 2 2.5 Over 72 - 100 12 - 7
02/15 14:00 Tempo pieno Tolosa II 0 - 0 Blagnac 0.0 1 - 5 1 - 2 2.0 Under 84 - 63 8 - 10
02/15 13:30 Tempo pieno Strasbourg Koenigshoffen 2 - 3 Sarreguemines 0.0 1 - 2 1 - 2 9.0 Under 2.0, 2.5 Over 92 - 86 9 - 11

Resta aggiornato con TotalCorner

Unisciti al nostro canale Telegram gratuito di pronostici. Puoi anche impostare avvisi partita personalizzati.

Pronostici gratis su Telegram Avvisi personalizzati